createdAt,value
2023-08-03T00:01:08.591Z,98621.59
2023-08-03T00:03:37.262Z,98646.23
2023-08-03T00:06:06.171Z,98680.21
2023-08-03T00:08:34.781Z,98695.67
2023-08-03T00:11:03.336Z,98709.14
2023-08-03T00:13:31.838Z,98699.48
2023-08-03T00:16:00.598Z,98683.73
2023-08-03T00:18:28.976Z,98685.48
2023-08-03T00:20:57.441Z,98696.65
2023-08-03T00:23:25.909Z,98693.45
2023-08-03T00:25:54.378Z,98685.17
2023-08-03T00:28:22.898Z,98698.86
2023-08-03T00:30:51.409Z,98696.62
2023-08-03T00:33:19.933Z,98690.18
2023-08-03T00:35:48.387Z,98690.48
2023-08-03T00:38:16.862Z,98678.23
2023-08-03T00:40:45.603Z,98668.39
2023-08-03T00:43:14.028Z,98661.55
2023-08-03T00:45:42.361Z,98629.86
2023-08-03T00:48:11.035Z,98587.67
2023-08-03T00:50:40.142Z,98602.77
2023-08-03T00:53:08.559Z,98608.40
2023-08-03T00:55:37.038Z,98634.75
2023-08-03T00:58:05.503Z,98656.56
2023-08-03T01:00:34.945Z,98663.04
2023-08-03T01:03:03.593Z,98666.26
2023-08-03T01:05:33.720Z,98664.92
2023-08-03T01:08:02.304Z,98650.60
2023-08-03T01:10:31.111Z,98639.73
2023-08-03T01:13:00.494Z,98634.42
2023-08-03T01:15:28.928Z,98605.91
2023-08-03T01:17:57.671Z,98583.90
2023-08-03T01:20:27.472Z,98598.09
2023-08-03T01:22:55.977Z,98621.16
2023-08-03T01:25:24.666Z,98608.88
2023-08-03T01:27:53.212Z,98587.82
2023-08-03T01:30:21.705Z,98603.57
2023-08-03T01:32:50.379Z,98613.09
2023-08-03T01:35:19.536Z,98614.75
2023-08-03T01:37:48.186Z,98605.00
2023-08-03T01:40:17.375Z,98594.27
2023-08-03T01:42:46.919Z,98609.83
2023-08-03T01:45:15.312Z,98615.11
2023-08-03T01:47:43.902Z,98616.70
2023-08-03T01:50:12.383Z,98625.27
2023-08-03T01:52:40.826Z,98634.73
2023-08-03T01:55:10.157Z,98625.41
2023-08-03T01:57:38.656Z,98617.23
2023-08-03T02:00:09.150Z,98618.72
2023-08-03T02:02:43.926Z,98625.54
2023-08-03T02:05:13.091Z,98633.01
2023-08-03T02:07:45.841Z,98627.84
2023-08-03T02:10:15.207Z,98625.76
2023-08-03T02:12:43.642Z,98631.86
2023-08-03T02:15:14.295Z,98626.23
2023-08-03T02:17:43.090Z,98624.76
2023-08-03T02:20:13.259Z,98630.05
2023-08-03T02:22:41.792Z,98627.81
2023-08-03T02:25:11.003Z,98636.44
2023-08-03T02:27:40.189Z,98642.95
2023-08-03T02:30:10.740Z,98638.23
2023-08-03T02:32:39.980Z,98633.38
2023-08-03T02:35:09.972Z,98635.02
2023-08-03T02:37:39.220Z,98640.64
2023-08-03T02:40:11.817Z,98643.44
2023-08-03T02:42:40.415Z,98650.00
2023-08-03T02:45:11.966Z,98641.06
2023-08-03T02:47:40.985Z,98629.23
2023-08-03T02:50:10.750Z,98629.10
2023-08-03T02:52:40.038Z,98635.91
2023-08-03T02:55:10.046Z,98645.60
2023-08-03T02:57:39.135Z,98648.88
2023-08-03T03:00:10.916Z,98647.33
2023-08-03T03:02:40.399Z,98653.69
2023-08-03T03:05:10.097Z,98665.75
2023-08-03T03:07:39.683Z,98663.29
2023-08-03T03:10:10.446Z,98674.82
2023-08-03T03:12:39.122Z,98690.42
2023-08-03T03:15:10.291Z,98701.59
2023-08-03T03:17:40.964Z,98719.39
2023-08-03T03:20:11.496Z,98715.44
2023-08-03T03:22:39.929Z,98697.80
2023-08-03T03:25:09.900Z,98706.31
2023-08-03T03:27:38.529Z,98734.22
2023-08-03T03:30:09.773Z,98742.42
2023-08-03T03:32:38.646Z,98733.27
2023-08-03T03:35:08.242Z,98718.65
2023-08-03T03:37:37.735Z,98710.52
2023-08-03T03:40:09.521Z,98722.45
2023-08-03T03:42:40.179Z,98717.56
2023-08-03T03:45:10.178Z,98698.42
2023-08-03T03:47:39.194Z,98701.67
2023-08-03T03:50:10.296Z,98677.66
2023-08-03T03:52:39.549Z,98624.70
2023-08-03T03:55:10.103Z,98677.89
2023-08-03T03:57:39.512Z,98700.26
2023-08-03T04:00:11.054Z,98704.70
2023-08-03T04:02:45.408Z,98739.41
2023-08-03T04:05:19.773Z,98752.84
2023-08-03T04:07:48.264Z,98767.05
2023-08-03T04:10:17.088Z,98767.04
2023-08-03T04:12:45.568Z,98777.71
2023-08-03T04:15:14.087Z,98801.35
2023-08-03T04:17:45.857Z,98797.38
2023-08-03T04:20:16.924Z,98786.02
2023-08-03T04:22:47.164Z,98736.64
2023-08-03T04:25:17.313Z,98721.13
2023-08-03T04:27:50.673Z,98772.76
2023-08-03T04:30:24.434Z,98775.58
2023-08-03T04:32:52.989Z,98788.17
2023-08-03T04:35:21.690Z,98778.15
2023-08-03T04:37:54.458Z,98746.84
2023-08-03T04:40:23.784Z,98732.83
2023-08-03T04:42:52.255Z,98763.90
2023-08-03T04:45:20.733Z,98779.41
2023-08-03T04:47:49.842Z,98701.10
2023-08-03T04:50:19.787Z,98659.93
2023-08-03T04:52:48.341Z,98796.31
2023-08-03T04:55:17.007Z,98794.91
2023-08-03T04:57:45.519Z,98813.36
2023-08-03T05:00:15.562Z,98819.84
2023-08-03T05:02:44.439Z,98798.48
2023-08-03T05:05:13.183Z,98789.10
2023-08-03T05:07:41.737Z,98786.92
2023-08-03T05:10:11.022Z,98799.48
2023-08-03T05:12:42.260Z,98783.55
2023-08-03T05:15:11.146Z,98742.19
2023-08-03T05:17:40.931Z,98734.25
2023-08-03T05:20:11.167Z,98774.44
2023-08-03T05:22:39.570Z,98784.65
2023-08-03T05:25:09.579Z,98753.59
2023-08-03T05:27:38.873Z,98790.52
2023-08-03T05:30:10.744Z,98767.14
2023-08-03T05:32:39.129Z,98742.99
2023-08-03T05:35:08.701Z,98735.52
2023-08-03T05:37:37.145Z,98735.65
2023-08-03T05:40:07.681Z,98753.83
2023-08-03T05:42:38.885Z,98748.86
2023-08-03T05:45:12.220Z,98756.88
2023-08-03T05:47:40.713Z,98769.06
2023-08-03T05:50:14.154Z,98774.31
2023-08-03T05:52:42.945Z,98780.35
2023-08-03T05:55:12.723Z,98810.11
2023-08-03T05:57:41.301Z,98817.04
2023-08-03T06:00:17.950Z,98817.80
2023-08-03T06:02:47.310Z,98836.82
2023-08-03T06:05:42.525Z,98846.27
2023-08-03T06:08:16.254Z,98851.30
2023-08-03T06:10:45.315Z,98852.80
2023-08-03T06:13:15.434Z,98863.27
2023-08-03T06:15:45.013Z,98850.48
2023-08-03T06:18:16.430Z,98836.73
2023-08-03T06:20:46.646Z,98845.67
2023-08-03T06:23:18.603Z,98873.34
2023-08-03T06:25:48.036Z,98868.83
2023-08-03T06:28:18.535Z,98871.61
2023-08-03T06:30:48.360Z,98858.34
2023-08-03T06:33:18.750Z,98863.05
2023-08-03T06:35:47.878Z,98865.80
2023-08-03T06:38:20.312Z,98865.91
2023-08-03T06:40:49.720Z,98851.45
2023-08-03T06:43:18.366Z,98841.89
2023-08-03T06:45:47.149Z,98859.73
2023-08-03T06:48:16.541Z,98866.73
2023-08-03T06:50:45.074Z,98850.52
2023-08-03T06:53:14.500Z,98850.91
2023-08-03T06:55:48.805Z,98866.14
2023-08-03T06:58:18.916Z,98879.89
2023-08-03T07:00:48.332Z,98881.58
2023-08-03T07:03:17.022Z,98864.86
2023-08-03T07:05:46.345Z,98894.27
2023-08-03T07:08:15.070Z,98884.63
2023-08-03T07:10:43.704Z,98883.54
2023-08-03T07:13:12.223Z,98881.90
2023-08-03T07:15:40.879Z,98875.04
2023-08-03T07:18:10.015Z,98857.09
2023-08-03T07:20:38.537Z,98861.61
2023-08-03T07:23:07.946Z,98839.07
2023-08-03T07:25:36.505Z,98852.15
2023-08-03T07:28:05.280Z,98848.70
2023-08-03T07:30:36.532Z,98869.17
2023-08-03T07:33:05.186Z,98851.02
2023-08-03T07:35:37.042Z,98839.93
2023-08-03T07:38:05.386Z,98842.19
2023-08-03T07:40:33.858Z,98824.00
2023-08-03T07:43:02.280Z,98836.81
2023-08-03T07:48:02.082Z,98813.80
2023-08-03T07:50:30.547Z,98823.31
2023-08-03T07:52:58.917Z,98864.41
2023-08-03T07:55:27.297Z,98882.02
2023-08-03T07:57:55.618Z,98893.39
2023-08-03T08:00:25.671Z,98882.63
2023-08-03T08:02:54.712Z,98882.97
2023-08-03T08:05:24.364Z,98884.05
2023-08-03T08:07:55.500Z,98888.38
2023-08-03T08:10:24.143Z,98888.27
2023-08-03T08:12:52.914Z,98871.34
2023-08-03T08:15:21.328Z,98867.92
2023-08-03T08:17:49.831Z,98862.77
2023-08-03T08:20:18.558Z,98872.41
2023-08-03T08:22:47.091Z,98882.08
2023-08-03T08:25:16.049Z,98880.73
2023-08-03T08:27:44.627Z,98872.96
2023-08-03T08:30:13.408Z,98866.20
2023-08-03T08:32:41.854Z,98875.73
2023-08-03T08:35:10.508Z,98879.10
2023-08-03T08:37:38.967Z,98883.41
2023-08-03T08:40:12.089Z,98880.00
2023-08-03T08:42:40.536Z,98872.96
2023-08-03T08:45:12.359Z,98869.63
2023-08-03T08:47:41.627Z,98874.95
2023-08-03T08:56:05.523Z,98883.19
2023-08-03T09:00:47.071Z,98886.33
2023-08-03T09:03:16.615Z,98889.47
2023-08-03T09:08:18.695Z,98887.73
2023-08-03T09:10:51.669Z,98883.77
2023-08-03T09:13:32.208Z,98876.88
2023-08-03T09:16:01.063Z,98888.02
2023-08-03T09:18:31.392Z,98892.55
2023-08-03T09:28:54.758Z,98916.95
2023-08-03T09:33:58.719Z,98942.58
2023-08-03T09:44:19.591Z,98949.02
2023-08-03T09:46:49.888Z,98954.45
2023-08-03T09:49:18.548Z,98949.14
2023-08-03T09:54:25.917Z,98954.29
2023-08-03T09:59:36.145Z,98941.77
2023-08-03T10:02:10.540Z,98935.48
2023-08-03T10:04:42.500Z,98943.30
2023-08-03T10:07:12.861Z,98950.31
2023-08-03T10:09:47.332Z,98948.53
2023-08-03T10:12:19.338Z,98956.70
2023-08-03T10:14:51.043Z,98950.62
2023-08-03T10:17:20.545Z,98934.73
2023-08-03T10:19:50.152Z,98919.05
2023-08-03T10:22:18.657Z,98925.38
2023-08-03T10:25:16.078Z,98936.17
2023-08-03T10:28:13.903Z,98929.91
2023-08-03T10:31:21.541Z,98924.70
2023-08-03T10:34:09.723Z,98939.00
2023-08-03T10:36:42.655Z,98924.47
2023-08-03T10:39:14.577Z,98914.63
2023-08-03T10:41:45.518Z,98919.70
2023-08-03T10:44:34.011Z,98911.73
2023-08-03T10:47:02.679Z,98917.13
2023-08-03T10:49:54.704Z,98913.23
2023-08-03T10:52:25.872Z,98917.81
2023-08-03T10:54:54.535Z,98915.98
2023-08-03T10:57:25.658Z,98917.77
2023-08-03T10:59:55.586Z,98921.20
2023-08-03T11:02:29.000Z,98915.52
2023-08-03T11:04:59.189Z,98928.54
2023-08-03T11:07:30.889Z,98926.54
2023-08-03T11:10:01.021Z,98928.23
2023-08-03T11:12:29.902Z,98930.94
2023-08-03T11:15:00.000Z,98930.17
2023-08-03T11:17:30.445Z,98929.94
2023-08-03T11:20:01.301Z,98936.59
2023-08-03T11:22:32.373Z,98932.20
2023-08-03T11:25:04.564Z,98935.25
2023-08-03T11:27:33.440Z,98932.14
2023-08-03T11:30:04.013Z,98925.32
2023-08-03T11:32:33.422Z,98928.63
2023-08-03T11:35:03.989Z,98932.50
2023-08-03T11:37:33.895Z,98939.66
2023-08-03T11:40:05.545Z,98937.55
2023-08-03T11:42:37.627Z,98942.31
2023-08-03T11:45:08.333Z,98942.39
2023-08-03T11:47:44.722Z,98940.52
2023-08-03T11:50:13.967Z,98936.79
2023-08-03T11:52:42.655Z,98938.94
2023-08-03T11:55:27.019Z,98942.11
2023-08-03T11:58:12.254Z,98933.38
2023-08-03T12:00:43.403Z,98925.64
2023-08-03T12:03:18.656Z,98918.56
2023-08-03T12:08:21.396Z,98918.34
2023-08-03T12:11:00.962Z,98921.10
2023-08-03T12:13:30.671Z,98916.00
2023-08-03T12:15:59.103Z,98914.81
2023-08-03T12:18:27.812Z,98913.58
2023-08-03T12:20:57.229Z,98914.22
2023-08-03T12:23:27.056Z,98911.77
2023-08-03T12:25:55.676Z,98920.27
2023-08-03T12:28:27.469Z,98920.23
2023-08-03T12:30:56.245Z,98918.84
2023-08-03T12:33:24.890Z,98920.70
2023-08-03T12:35:53.367Z,98923.23
2023-08-03T12:38:21.824Z,98919.59
2023-08-03T12:40:50.353Z,98919.44
2023-08-03T12:43:18.916Z,98925.27
2023-08-03T12:45:47.603Z,98930.60
2023-08-03T12:48:17.983Z,98931.35
2023-08-03T12:50:46.734Z,98930.84
2023-08-03T12:53:15.574Z,98931.65
2023-08-03T12:55:44.241Z,98929.67
2023-08-03T12:58:13.271Z,98931.62
2023-08-03T13:00:41.843Z,98941.70
2023-08-03T13:03:10.534Z,98946.98
2023-08-03T13:05:39.870Z,98952.44
2023-08-03T13:08:09.872Z,98952.96
2023-08-03T13:10:38.557Z,98951.80
2023-08-03T13:13:07.584Z,98945.83
2023-08-03T13:15:36.424Z,98952.23
2023-08-03T13:18:05.670Z,98947.66
2023-08-03T13:20:39.225Z,98948.59
2023-08-03T13:23:09.042Z,98950.12
2023-08-03T13:25:37.485Z,98955.88
2023-08-03T13:28:06.280Z,98951.75
2023-08-03T13:30:34.731Z,98960.67
2023-08-03T13:33:03.310Z,98961.94
2023-08-03T13:35:31.663Z,98968.09
2023-08-03T13:38:00.268Z,98973.13
2023-08-03T13:40:30.526Z,98981.34
2023-08-03T13:42:59.093Z,98973.64
2023-08-03T13:45:27.763Z,98966.67
2023-08-03T13:47:56.457Z,98972.68
2023-08-03T13:50:25.219Z,98972.30
2023-08-03T13:52:53.776Z,98978.02
2023-08-03T13:55:22.356Z,98985.85
2023-08-03T13:58:04.817Z,98989.14
2023-08-03T14:03:06.836Z,98985.57
2023-08-03T14:08:07.113Z,98980.59
2023-08-03T14:10:36.607Z,98976.80
2023-08-03T14:13:05.190Z,98976.54
2023-08-03T14:23:09.497Z,98987.48
2023-08-03T14:30:41.467Z,98984.96
2023-08-03T14:33:10.224Z,98986.10
2023-08-03T14:35:38.784Z,98987.49
2023-08-03T14:38:07.649Z,98991.35
2023-08-03T14:40:36.227Z,98991.56
2023-08-03T14:43:04.914Z,98997.00
2023-08-03T14:45:35.619Z,98997.55
2023-08-03T14:48:09.111Z,98993.18
2023-08-03T14:50:38.939Z,98995.10
2023-08-03T14:53:07.562Z,98991.08
2023-08-03T14:56:33.352Z,98986.80
2023-08-03T14:58:24.300Z,98991.61
2023-08-03T15:00:52.854Z,98997.53
2023-08-03T15:03:22.177Z,98997.79
2023-08-03T15:05:50.935Z,98998.14
2023-08-03T15:08:19.394Z,98999.96
2023-08-03T15:10:55.111Z,99006.44
2023-08-03T15:13:30.820Z,99003.96
2023-08-03T15:18:42.088Z,99009.09
2023-08-03T15:21:21.776Z,99007.27
2023-08-03T15:23:53.600Z,99015.84
2023-08-03T15:26:25.718Z,99017.47
2023-08-03T15:29:01.075Z,99017.64
2023-08-03T15:31:30.321Z,99020.89
2023-08-03T15:33:59.577Z,99027.98
2023-08-03T15:36:36.532Z,99031.02
2023-08-03T15:39:07.630Z,99032.27
2023-08-03T15:41:37.702Z,99031.99
2023-08-03T15:44:13.396Z,99036.23
2023-08-03T15:46:57.928Z,99035.59
2023-08-03T15:49:33.394Z,99035.75
2023-08-03T15:52:12.420Z,99035.79
2023-08-03T15:54:48.666Z,99035.77
2023-08-03T15:57:22.693Z,99040.83
2023-08-03T15:59:51.161Z,99036.11
2023-08-03T16:02:19.682Z,99041.77
2023-08-03T16:04:49.334Z,99037.30
2023-08-03T16:07:17.895Z,99046.59
2023-08-03T16:09:48.967Z,99042.61
2023-08-03T16:12:17.454Z,99044.51
2023-08-03T16:14:46.559Z,99048.42
2023-08-03T16:17:16.152Z,99048.21
2023-08-03T16:19:44.842Z,99048.34
2023-08-03T16:22:13.272Z,99053.59
2023-08-03T16:24:41.685Z,99047.98
2023-08-03T16:27:10.062Z,99054.00
2023-08-03T16:32:15.601Z,99058.64
2023-08-03T16:37:16.494Z,99062.14
2023-08-03T16:39:45.430Z,99068.95
2023-08-03T16:42:15.091Z,99067.84
2023-08-03T16:44:43.451Z,99069.74
2023-08-03T16:47:12.374Z,99072.65
2023-08-03T16:49:42.602Z,99073.84
2023-08-03T16:52:12.818Z,99072.81
2023-08-03T16:54:43.656Z,99079.61
2023-08-03T16:57:12.811Z,99080.23
2023-08-03T16:59:41.242Z,99083.67
2023-08-03T17:02:09.754Z,99080.09
2023-08-03T17:04:38.882Z,99086.38
2023-08-03T17:07:08.702Z,99090.23
2023-08-03T17:09:39.167Z,99100.66
2023-08-03T17:12:09.002Z,99092.52
2023-08-03T17:14:38.258Z,99094.62
2023-08-03T17:17:07.695Z,99099.86
2023-08-03T17:19:36.102Z,99101.92
2023-08-03T17:22:05.200Z,99103.20
2023-08-03T17:24:33.775Z,99104.70
2023-08-03T17:27:03.040Z,99107.71
2023-08-03T17:29:31.517Z,99110.41
2023-08-03T17:32:00.001Z,99109.04
2023-08-03T17:34:28.548Z,99111.56
2023-08-03T17:36:57.061Z,99111.46
2023-08-03T17:39:25.544Z,99113.91
2023-08-03T17:41:54.434Z,99114.94
2023-08-03T17:44:22.983Z,99111.27
2023-08-03T17:46:52.987Z,99117.89
2023-08-03T17:49:21.522Z,99121.27
2023-08-03T17:51:49.988Z,99128.67
2023-08-03T17:54:18.755Z,99132.80
2023-08-03T17:56:47.536Z,99133.84
2023-08-03T17:59:16.415Z,99135.19
2023-08-03T18:01:45.268Z,99136.34
2023-08-03T18:04:14.163Z,99140.72
2023-08-03T18:06:42.934Z,99147.38
2023-08-03T18:09:11.567Z,99150.59
2023-08-03T18:11:40.028Z,99153.03
2023-08-03T18:14:08.700Z,99154.45
2023-08-03T18:16:37.255Z,99156.95
2023-08-03T18:19:05.944Z,99160.23
2023-08-03T18:21:34.396Z,99167.73
2023-08-03T18:24:02.951Z,99168.80
2023-08-03T18:26:31.496Z,99168.75
2023-08-03T18:29:00.099Z,99168.54
2023-08-03T18:31:28.836Z,99171.82
2023-08-03T18:33:58.506Z,99174.90
2023-08-03T18:36:27.079Z,99180.63
2023-08-03T18:38:55.565Z,99186.42
2023-08-03T18:41:24.747Z,99191.59
2023-08-03T18:43:53.358Z,99197.19
2023-08-03T18:46:22.830Z,99199.66
2023-08-03T18:48:51.507Z,99205.55
2023-08-03T18:51:21.509Z,99213.52
2023-08-03T18:53:51.066Z,99215.73
2023-08-03T18:56:20.509Z,99225.61
2023-08-03T18:58:50.672Z,99234.41
2023-08-03T19:01:19.197Z,99238.05
2023-08-03T19:03:49.412Z,99242.77
2023-08-03T19:06:18.572Z,99244.55
2023-08-03T19:08:47.087Z,99248.53
2023-08-03T19:11:16.483Z,99250.98
2023-08-03T19:13:45.393Z,99251.69
2023-08-03T19:16:13.966Z,99257.48
2023-08-03T19:18:42.888Z,99262.33
2023-08-03T19:21:12.071Z,99268.04
2023-08-03T19:23:40.516Z,99275.64
2023-08-03T19:26:13.008Z,99281.66
2023-08-03T19:28:41.518Z,99283.45
2023-08-03T19:31:09.920Z,99286.45
2023-08-03T19:33:38.524Z,99285.30
2023-08-03T19:36:07.117Z,99284.29
2023-08-03T19:38:35.626Z,99281.99
2023-08-03T19:41:06.455Z,99286.85
2023-08-03T19:43:35.025Z,99288.23
2023-08-03T19:46:10.691Z,99284.80
2023-08-03T19:48:39.115Z,99286.64
2023-08-03T19:53:40.956Z,99293.72
2023-08-03T20:06:17.697Z,99310.65
2023-08-03T20:08:48.299Z,99305.63
2023-08-03T20:11:17.680Z,99306.79
2023-08-03T20:21:20.489Z,99315.46
2023-08-03T20:23:50.096Z,99313.50
2023-08-03T20:26:24.714Z,99320.87
2023-08-03T20:28:54.624Z,99324.15
2023-08-03T20:31:23.548Z,99327.27
2023-08-03T20:33:52.098Z,99325.32
2023-08-03T20:36:22.252Z,99324.30
2023-08-03T20:39:07.786Z,99323.19
2023-08-03T20:49:14.033Z,99340.77
2023-08-03T20:51:42.572Z,99342.46
2023-08-03T20:56:42.943Z,99358.19
2023-08-03T20:59:11.569Z,99355.67
2023-08-03T21:01:40.525Z,99359.03
2023-08-03T21:04:09.078Z,99358.13
2023-08-03T21:06:37.583Z,99367.54
2023-08-03T21:09:06.144Z,99371.17
2023-08-03T21:11:34.570Z,99371.50
2023-08-03T21:14:03.779Z,99365.11
2023-08-03T21:16:32.474Z,99373.74
2023-08-03T21:21:32.446Z,99367.31
2023-08-03T21:24:00.968Z,99367.88
2023-08-03T21:26:29.501Z,99370.30
2023-08-03T21:28:57.893Z,99375.27
2023-08-03T21:31:26.540Z,99372.38
2023-08-03T21:33:55.758Z,99368.35
2023-08-03T21:36:24.257Z,99368.84
2023-08-03T21:38:53.086Z,99380.92
2023-08-03T21:41:21.506Z,99373.23
2023-08-03T21:43:50.025Z,99373.22
2023-08-03T21:46:18.446Z,99375.02
2023-08-03T21:48:46.860Z,99374.98
2023-08-03T21:51:15.297Z,99376.03
2023-08-03T21:53:43.707Z,99383.83
2023-08-03T21:56:18.603Z,99382.67
2023-08-03T21:58:49.268Z,99382.21
2023-08-03T22:01:18.049Z,99387.41
2023-08-03T22:03:47.556Z,99382.43
2023-08-03T22:06:16.038Z,99386.33
2023-08-03T22:08:44.636Z,99392.30
2023-08-03T22:11:17.185Z,99390.15
2023-08-03T22:13:45.747Z,99390.94
2023-08-03T22:16:14.717Z,99393.75
2023-08-03T22:18:43.469Z,99398.90
2023-08-03T22:21:13.996Z,99395.89
2023-08-03T22:23:42.815Z,99403.02
2023-08-03T22:26:14.858Z,99408.01
2023-08-03T22:28:43.440Z,99409.70
2023-08-03T22:31:13.741Z,99414.41
2023-08-03T22:33:42.757Z,99415.30
2023-08-03T22:36:13.118Z,99417.73
2023-08-03T22:38:45.110Z,99418.20
2023-08-03T22:41:14.356Z,99413.34
2023-08-03T22:43:42.956Z,99418.66
2023-08-03T22:46:17.681Z,99418.50
2023-08-03T22:48:46.496Z,99415.83
2023-08-03T22:51:16.299Z,99415.50
2023-08-03T22:53:45.261Z,99417.45
2023-08-03T22:56:14.149Z,99410.68
2023-08-03T22:58:43.062Z,99422.77
2023-08-03T23:01:16.289Z,99428.83
2023-08-03T23:03:45.350Z,99433.04
2023-08-03T23:06:14.922Z,99430.77
2023-08-03T23:08:43.998Z,99435.02
2023-08-03T23:11:13.326Z,99427.08
2023-08-03T23:13:42.024Z,99432.37
2023-08-03T23:16:16.786Z,99435.33
2023-08-03T23:18:45.271Z,99437.41
2023-08-03T23:21:13.754Z,99435.10
2023-08-03T23:23:42.274Z,99440.42
2023-08-03T23:26:12.232Z,99437.30
2023-08-03T23:28:40.744Z,99436.27
2023-08-03T23:31:10.493Z,99436.45
2023-08-03T23:33:39.820Z,99441.75
2023-08-03T23:36:08.426Z,99447.30
2023-08-03T23:38:36.792Z,99449.01
2023-08-03T23:41:05.727Z,99446.09
2023-08-03T23:43:34.107Z,99442.86
2023-08-03T23:46:02.722Z,99442.27
2023-08-03T23:48:31.130Z,99439.87
2023-08-03T23:50:59.459Z,99441.84
2023-08-03T23:53:27.900Z,99446.36
2023-08-03T23:55:56.369Z,99452.13
2023-08-03T23:58:25.018Z,99454.94
